sensor_id;sensor_type;location;lat;lon;timestamp;P1;durP1;ratioP1;P2;durP2;ratioP2
60169;SDS011;46042;49.444;6.862;2023-07-22T00:02:24;2.88;;;2.50;;
60169;SDS011;46042;49.444;6.862;2023-07-22T00:04:50;3.47;;;2.47;;
60169;SDS011;46042;49.444;6.862;2023-07-22T00:07:18;3.70;;;2.45;;
60169;SDS011;46042;49.444;6.862;2023-07-22T00:09:45;5.00;;;2.40;;
60169;SDS011;46042;49.444;6.862;2023-07-22T00:12:12;5.22;;;2.65;;
60169;SDS011;46042;49.444;6.862;2023-07-22T00:14:39;5.72;;;2.40;;
60169;SDS011;46042;49.444;6.862;2023-07-22T00:17:07;2.88;;;2.42;;
60169;SDS011;46042;49.444;6.862;2023-07-22T00:19:34;4.93;;;2.60;;
60169;SDS011;46042;49.444;6.862;2023-07-22T00:22:01;3.40;;;2.58;;
60169;SDS011;46042;49.444;6.862;2023-07-22T00:24:28;3.55;;;2.50;;
60169;SDS011;46042;49.444;6.862;2023-07-22T00:26:55;4.43;;;2.47;;
60169;SDS011;46042;49.444;6.862;2023-07-22T00:29:22;3.55;;;2.55;;
60169;SDS011;46042;49.444;6.862;2023-07-22T00:31:48;5.20;;;2.67;;
60169;SDS011;46042;49.444;6.862;2023-07-22T00:34:15;3.28;;;2.58;;
60169;SDS011;46042;49.444;6.862;2023-07-22T00:36:43;4.95;;;2.60;;
60169;SDS011;46042;49.444;6.862;2023-07-22T00:39:10;3.85;;;2.38;;
60169;SDS011;46042;49.444;6.862;2023-07-22T00:41:40;3.35;;;2.35;;
60169;SDS011;46042;49.444;6.862;2023-07-22T00:44:11;5.93;;;2.40;;
60169;SDS011;46042;49.444;6.862;2023-07-22T00:46:39;5.18;;;2.40;;
60169;SDS011;46042;49.444;6.862;2023-07-22T00:49:06;4.93;;;2.60;;
60169;SDS011;46042;49.444;6.862;2023-07-22T00:51:34;6.90;;;2.60;;
60169;SDS011;46042;49.444;6.862;2023-07-22T00:54:00;3.70;;;2.40;;
60169;SDS011;46042;49.444;6.862;2023-07-22T00:56:27;4.25;;;2.35;;
60169;SDS011;46042;49.444;6.862;2023-07-22T00:58:54;3.58;;;2.63;;
60169;SDS011;46042;49.444;6.862;2023-07-22T01:01:22;4.55;;;2.60;;
60169;SDS011;46042;49.444;6.862;2023-07-22T01:03:48;4.90;;;2.58;;
60169;SDS011;46042;49.444;6.862;2023-07-22T01:06:15;4.22;;;2.50;;
60169;SDS011;46042;49.444;6.862;2023-07-22T01:08:44;5.22;;;2.50;;
60169;SDS011;46042;49.444;6.862;2023-07-22T01:11:11;8.02;;;3.20;;
60169;SDS011;46042;49.444;6.862;2023-07-22T01:13:39;3.95;;;2.75;;
60169;SDS011;46042;49.444;6.862;2023-07-22T01:16:06;4.32;;;2.80;;
60169;SDS011;46042;49.444;6.862;2023-07-22T01:18:33;5.45;;;2.60;;
60169;SDS011;46042;49.444;6.862;2023-07-22T01:21:00;4.18;;;2.58;;
60169;SDS011;46042;49.444;6.862;2023-07-22T01:23:27;3.45;;;2.50;;
60169;SDS011;46042;49.444;6.862;2023-07-22T01:25:54;4.85;;;2.38;;
60169;SDS011;46042;49.444;6.862;2023-07-22T01:28:22;3.92;;;2.15;;
60169;SDS011;46042;49.444;6.862;2023-07-22T01:30:49;3.67;;;2.38;;
60169;SDS011;46042;49.444;6.862;2023-07-22T01:33:15;7.15;;;2.50;;
60169;SDS011;46042;49.444;6.862;2023-07-22T01:35:42;3.10;;;2.35;;
60169;SDS011;46042;49.444;6.862;2023-07-22T01:38:09;3.97;;;2.50;;
60169;SDS011;46042;49.444;6.862;2023-07-22T01:40:35;4.65;;;2.88;;
60169;SDS011;46042;49.444;6.862;2023-07-22T01:43:02;3.83;;;2.67;;
60169;SDS011;46042;49.444;6.862;2023-07-22T01:45:29;3.50;;;2.70;;
60169;SDS011;46042;49.444;6.862;2023-07-22T01:47:55;3.67;;;2.80;;
60169;SDS011;46042;49.444;6.862;2023-07-22T01:50:22;4.80;;;3.17;;
60169;SDS011;46042;49.444;6.862;2023-07-22T01:52:48;5.25;;;3.25;;
60169;SDS011;46042;49.444;6.862;2023-07-22T01:55:15;4.20;;;3.00;;
60169;SDS011;46042;49.444;6.862;2023-07-22T01:57:42;4.80;;;3.28;;
60169;SDS011;46042;49.444;6.862;2023-07-22T02:00:09;5.65;;;4.05;;
60169;SDS011;46042;49.444;6.862;2023-07-22T02:02:37;7.28;;;3.35;;
60169;SDS011;46042;49.444;6.862;2023-07-22T02:05:04;4.63;;;3.40;;
60169;SDS011;46042;49.444;6.862;2023-07-22T02:07:32;7.20;;;3.15;;
60169;SDS011;46042;49.444;6.862;2023-07-22T02:09:59;4.82;;;3.00;;
60169;SDS011;46042;49.444;6.862;2023-07-22T02:12:26;3.90;;;3.10;;
60169;SDS011;46042;49.444;6.862;2023-07-22T02:14:52;5.07;;;2.85;;
60169;SDS011;46042;49.444;6.862;2023-07-22T02:17:19;7.47;;;3.17;;
60169;SDS011;46042;49.444;6.862;2023-07-22T02:19:46;3.60;;;2.65;;
60169;SDS011;46042;49.444;6.862;2023-07-22T02:22:13;4.10;;;3.03;;
60169;SDS011;46042;49.444;6.862;2023-07-22T02:24:40;4.88;;;2.78;;
60169;SDS011;46042;49.444;6.862;2023-07-22T02:27:06;5.22;;;2.55;;
60169;SDS011;46042;49.444;6.862;2023-07-22T02:29:35;5.15;;;2.90;;
60169;SDS011;46042;49.444;6.862;2023-07-22T02:32:01;4.55;;;3.00;;
60169;SDS011;46042;49.444;6.862;2023-07-22T02:34:28;4.05;;;3.13;;
60169;SDS011;46042;49.444;6.862;2023-07-22T02:36:55;4.72;;;2.95;;
60169;SDS011;46042;49.444;6.862;2023-07-22T02:39:21;3.75;;;2.90;;
60169;SDS011;46042;49.444;6.862;2023-07-22T02:41:48;5.45;;;2.60;;
60169;SDS011;46042;49.444;6.862;2023-07-22T02:44:15;5.20;;;3.55;;
60169;SDS011;46042;49.444;6.862;2023-07-22T02:46:42;5.18;;;3.40;;
60169;SDS011;46042;49.444;6.862;2023-07-22T02:49:08;5.43;;;3.47;;
60169;SDS011;46042;49.444;6.862;2023-07-22T02:51:36;13.05;;;4.20;;
60169;SDS011;46042;49.444;6.862;2023-07-22T02:54:02;4.93;;;3.47;;
60169;SDS011;46042;49.444;6.862;2023-07-22T02:56:30;6.53;;;3.10;;
60169;SDS011;46042;49.444;6.862;2023-07-22T02:58:56;3.90;;;3.13;;
60169;SDS011;46042;49.444;6.862;2023-07-22T03:01:24;6.22;;;3.80;;
60169;SDS011;46042;49.444;6.862;2023-07-22T03:03:51;4.35;;;2.92;;
60169;SDS011;46042;49.444;6.862;2023-07-22T03:06:17;5.55;;;3.03;;
60169;SDS011;46042;49.444;6.862;2023-07-22T03:08:45;5.00;;;2.75;;
60169;SDS011;46042;49.444;6.862;2023-07-22T03:11:11;5.25;;;3.10;;
60169;SDS011;46042;49.444;6.862;2023-07-22T03:13:38;3.53;;;2.80;;
60169;SDS011;46042;49.444;6.862;2023-07-22T03:16:05;5.55;;;2.85;;
60169;SDS011;46042;49.444;6.862;2023-07-22T03:18:31;4.72;;;2.80;;
60169;SDS011;46042;49.444;6.862;2023-07-22T03:20:58;5.40;;;3.50;;
60169;SDS011;46042;49.444;6.862;2023-07-22T03:23:25;5.55;;;3.42;;
60169;SDS011;46042;49.444;6.862;2023-07-22T03:25:51;4.38;;;3.08;;
60169;SDS011;46042;49.444;6.862;2023-07-22T03:28:18;5.18;;;3.25;;
60169;SDS011;46042;49.444;6.862;2023-07-22T03:30:45;4.38;;;3.25;;
60169;SDS011;46042;49.444;6.862;2023-07-22T03:33:11;6.13;;;3.10;;
60169;SDS011;46042;49.444;6.862;2023-07-22T03:35:38;5.85;;;3.45;;
60169;SDS011;46042;49.444;6.862;2023-07-22T03:38:07;6.18;;;3.50;;
60169;SDS011;46042;49.444;6.862;2023-07-22T03:40:34;6.47;;;3.85;;
60169;SDS011;46042;49.444;6.862;2023-07-22T03:43:01;5.75;;;4.10;;
60169;SDS011;46042;49.444;6.862;2023-07-22T03:45:28;6.10;;;4.25;;
60169;SDS011;46042;49.444;6.862;2023-07-22T03:47:58;5.95;;;4.10;;
60169;SDS011;46042;49.444;6.862;2023-07-22T03:50:26;6.10;;;4.10;;
60169;SDS011;46042;49.444;6.862;2023-07-22T03:52:54;6.05;;;4.35;;
60169;SDS011;46042;49.444;6.862;2023-07-22T03:55:20;6.40;;;3.90;;
60169;SDS011;46042;49.444;6.862;2023-07-22T03:57:47;6.60;;;4.03;;
60169;SDS011;46042;49.444;6.862;2023-07-22T04:00:14;6.03;;;3.28;;
60169;SDS011;46042;49.444;6.862;2023-07-22T04:02:41;5.85;;;4.10;;
60169;SDS011;46042;49.444;6.862;2023-07-22T04:05:08;6.30;;;4.22;;
60169;SDS011;46042;49.444;6.862;2023-07-22T04:07:36;10.00;;;5.07;;
60169;SDS011;46042;49.444;6.862;2023-07-22T04:10:03;8.88;;;4.60;;
60169;SDS011;46042;49.444;6.862;2023-07-22T04:12:30;8.07;;;5.38;;
60169;SDS011;46042;49.444;6.862;2023-07-22T04:14:57;6.65;;;4.80;;
60169;SDS011;46042;49.444;6.862;2023-07-22T04:17:23;6.97;;;4.38;;
60169;SDS011;46042;49.444;6.862;2023-07-22T04:19:51;5.15;;;3.50;;
60169;SDS011;46042;49.444;6.862;2023-07-22T04:22:18;5.88;;;3.20;;
60169;SDS011;46042;49.444;6.862;2023-07-22T04:24:46;5.18;;;3.40;;
60169;SDS011;46042;49.444;6.862;2023-07-22T04:27:15;6.78;;;3.55;;
60169;SDS011;46042;49.444;6.862;2023-07-22T04:29:42;5.07;;;3.53;;
60169;SDS011;46042;49.444;6.862;2023-07-22T04:32:09;11.35;;;3.33;;
60169;SDS011;46042;49.444;6.862;2023-07-22T04:34:36;6.60;;;3.33;;
60169;SDS011;46042;49.444;6.862;2023-07-22T04:37:03;5.82;;;3.10;;
60169;SDS011;46042;49.444;6.862;2023-07-22T04:39:30;7.88;;;3.10;;
60169;SDS011;46042;49.444;6.862;2023-07-22T04:41:56;5.15;;;2.88;;
60169;SDS011;46042;49.444;6.862;2023-07-22T04:44:23;4.80;;;3.00;;
60169;SDS011;46042;49.444;6.862;2023-07-22T04:46:50;5.00;;;2.75;;
60169;SDS011;46042;49.444;6.862;2023-07-22T04:49:17;5.85;;;2.83;;
60169;SDS011;46042;49.444;6.862;2023-07-22T04:51:45;2.88;;;2.42;;
60169;SDS011;46042;49.444;6.862;2023-07-22T04:54:12;7.38;;;2.83;;
60169;SDS011;46042;49.444;6.862;2023-07-22T04:56:41;12.00;;;3.97;;
60169;SDS011;46042;49.444;6.862;2023-07-22T04:59:08;6.00;;;3.80;;
60169;SDS011;46042;49.444;6.862;2023-07-22T05:01:35;10.32;;;5.90;;
60169;SDS011;46042;49.444;6.862;2023-07-22T05:04:02;10.50;;;6.13;;
60169;SDS011;46042;49.444;6.862;2023-07-22T05:06:29;8.60;;;4.68;;
60169;SDS011;46042;49.444;6.862;2023-07-22T05:08:56;10.55;;;5.45;;
60169;SDS011;46042;49.444;6.862;2023-07-22T05:11:23;10.63;;;5.50;;
60169;SDS011;46042;49.444;6.862;2023-07-22T05:13:50;7.22;;;5.07;;
60169;SDS011;46042;49.444;6.862;2023-07-22T05:16:17;11.63;;;4.88;;
60169;SDS011;46042;49.444;6.862;2023-07-22T05:18:45;6.63;;;4.43;;
60169;SDS011;46042;49.444;6.862;2023-07-22T05:21:12;8.88;;;4.00;;
60169;SDS011;46042;49.444;6.862;2023-07-22T05:23:38;7.25;;;4.53;;
60169;SDS011;46042;49.444;6.862;2023-07-22T05:26:05;10.65;;;4.45;;
60169;SDS011;46042;49.444;6.862;2023-07-22T05:28:32;13.68;;;5.50;;
60169;SDS011;46042;49.444;6.862;2023-07-22T05:30:58;8.48;;;4.30;;
60169;SDS011;46042;49.444;6.862;2023-07-22T05:33:25;8.52;;;3.90;;
60169;SDS011;46042;49.444;6.862;2023-07-22T05:35:52;9.45;;;3.97;;
60169;SDS011;46042;49.444;6.862;2023-07-22T05:38:18;6.97;;;3.78;;
60169;SDS011;46042;49.444;6.862;2023-07-22T05:40:45;5.40;;;3.78;;
60169;SDS011;46042;49.444;6.862;2023-07-22T05:43:12;7.72;;;4.18;;
60169;SDS011;46042;49.444;6.862;2023-07-22T05:45:38;6.75;;;4.00;;
60169;SDS011;46042;49.444;6.862;2023-07-22T05:48:05;7.57;;;4.05;;
60169;SDS011;46042;49.444;6.862;2023-07-22T05:50:32;7.75;;;4.45;;
60169;SDS011;46042;49.444;6.862;2023-07-22T05:52:59;13.10;;;4.10;;
60169;SDS011;46042;49.444;6.862;2023-07-22T05:55:26;5.45;;;3.90;;
60169;SDS011;46042;49.444;6.862;2023-07-22T05:57:53;8.23;;;3.60;;
60169;SDS011;46042;49.444;6.862;2023-07-22T06:00:20;7.43;;;4.40;;
60169;SDS011;46042;49.444;6.862;2023-07-22T06:02:47;5.20;;;3.53;;
60169;SDS011;46042;49.444;6.862;2023-07-22T06:05:15;7.65;;;3.88;;
60169;SDS011;46042;49.444;6.862;2023-07-22T06:07:42;4.97;;;3.28;;
60169;SDS011;46042;49.444;6.862;2023-07-22T06:10:09;5.05;;;3.42;;
60169;SDS011;46042;49.444;6.862;2023-07-22T06:12:36;7.65;;;3.65;;
60169;SDS011;46042;49.444;6.862;2023-07-22T06:15:03;6.22;;;3.15;;
60169;SDS011;46042;49.444;6.862;2023-07-22T06:17:30;5.35;;;3.00;;
60169;SDS011;46042;49.444;6.862;2023-07-22T06:19:58;4.30;;;3.10;;
60169;SDS011;46042;49.444;6.862;2023-07-22T06:22:24;5.60;;;3.20;;
60169;SDS011;46042;49.444;6.862;2023-07-22T06:24:51;5.25;;;3.17;;
60169;SDS011;46042;49.444;6.862;2023-07-22T06:27:18;4.70;;;2.95;;
60169;SDS011;46042;49.444;6.862;2023-07-22T06:29:45;6.00;;;3.10;;
60169;SDS011;46042;49.444;6.862;2023-07-22T06:32:12;5.10;;;2.97;;
60169;SDS011;46042;49.444;6.862;2023-07-22T06:34:38;4.80;;;3.10;;
60169;SDS011;46042;49.444;6.862;2023-07-22T06:37:05;5.32;;;3.30;;
60169;SDS011;46042;49.444;6.862;2023-07-22T06:39:32;3.55;;;2.70;;
60169;SDS011;46042;49.444;6.862;2023-07-22T06:41:58;6.53;;;3.25;;
60169;SDS011;46042;49.444;6.862;2023-07-22T06:44:25;4.82;;;2.90;;
60169;SDS011;46042;49.444;6.862;2023-07-22T06:46:52;5.55;;;2.85;;
60169;SDS011;46042;49.444;6.862;2023-07-22T06:49:18;5.20;;;3.25;;
60169;SDS011;46042;49.444;6.862;2023-07-22T06:51:45;4.22;;;2.85;;
60169;SDS011;46042;49.444;6.862;2023-07-22T06:54:12;5.45;;;2.80;;
60169;SDS011;46042;49.444;6.862;2023-07-22T06:56:39;5.53;;;3.20;;
60169;SDS011;46042;49.444;6.862;2023-07-22T06:59:05;7.22;;;4.70;;
60169;SDS011;46042;49.444;6.862;2023-07-22T07:01:32;7.25;;;4.68;;
60169;SDS011;46042;49.444;6.862;2023-07-22T07:03:59;9.88;;;4.57;;
60169;SDS011;46042;49.444;6.862;2023-07-22T07:06:26;5.70;;;3.35;;
60169;SDS011;46042;49.444;6.862;2023-07-22T07:08:52;5.10;;;2.83;;
60169;SDS011;46042;49.444;6.862;2023-07-22T07:11:19;13.65;;;3.75;;
60169;SDS011;46042;49.444;6.862;2023-07-22T07:13:46;4.75;;;3.17;;
60169;SDS011;46042;49.444;6.862;2023-07-22T07:16:19;4.82;;;3.22;;
60169;SDS011;46042;49.444;6.862;2023-07-22T07:18:51;4.63;;;3.35;;
60169;SDS011;46042;49.444;6.862;2023-07-22T07:21:19;5.38;;;3.08;;
60169;SDS011;46042;49.444;6.862;2023-07-22T07:23:46;4.50;;;2.97;;
60169;SDS011;46042;49.444;6.862;2023-07-22T07:26:14;4.47;;;2.97;;
60169;SDS011;46042;49.444;6.862;2023-07-22T07:28:41;3.70;;;3.00;;
60169;SDS011;46042;49.444;6.862;2023-07-22T07:31:07;6.22;;;3.00;;
60169;SDS011;46042;49.444;6.862;2023-07-22T07:33:34;6.13;;;3.30;;
60169;SDS011;46042;49.444;6.862;2023-07-22T07:36:01;3.85;;;2.67;;
60169;SDS011;46042;49.444;6.862;2023-07-22T07:38:29;5.20;;;3.78;;
60169;SDS011;46042;49.444;6.862;2023-07-22T07:40:56;4.45;;;3.10;;
60169;SDS011;46042;49.444;6.862;2023-07-22T07:43:27;7.57;;;3.17;;
60169;SDS011;46042;49.444;6.862;2023-07-22T07:48:45;9.05;;;3.33;;
60169;SDS011;46042;49.444;6.862;2023-07-22T07:51:13;7.07;;;3.58;;
60169;SDS011;46042;49.444;6.862;2023-07-22T07:53:41;6.10;;;3.22;;
60169;SDS011;46042;49.444;6.862;2023-07-22T07:56:11;7.80;;;3.55;;
60169;SDS011;46042;49.444;6.862;2023-07-22T07:58:39;6.78;;;3.33;;
60169;SDS011;46042;49.444;6.862;2023-07-22T08:01:06;4.90;;;3.22;;
60169;SDS011;46042;49.444;6.862;2023-07-22T08:03:34;6.03;;;3.13;;
60169;SDS011;46042;49.444;6.862;2023-07-22T08:06:02;7.50;;;2.65;;
60169;SDS011;46042;49.444;6.862;2023-07-22T08:08:30;5.68;;;3.10;;
60169;SDS011;46042;49.444;6.862;2023-07-22T08:11:04;5.80;;;2.90;;
60169;SDS011;46042;49.444;6.862;2023-07-22T08:13:34;6.20;;;2.90;;
60169;SDS011;46042;49.444;6.862;2023-07-22T08:16:02;6.47;;;3.00;;
60169;SDS011;46042;49.444;6.862;2023-07-22T08:18:30;6.97;;;3.10;;
60169;SDS011;46042;49.444;6.862;2023-07-22T08:21:01;4.72;;;3.10;;
60169;SDS011;46042;49.444;6.862;2023-07-22T08:23:29;7.50;;;2.63;;
60169;SDS011;46042;49.444;6.862;2023-07-22T08:25:57;4.85;;;2.53;;
60169;SDS011;46042;49.444;6.862;2023-07-22T08:28:25;6.57;;;3.25;;
60169;SDS011;46042;49.444;6.862;2023-07-22T08:30:55;4.53;;;2.90;;
60169;SDS011;46042;49.444;6.862;2023-07-22T08:33:22;6.50;;;2.90;;
60169;SDS011;46042;49.444;6.862;2023-07-22T08:36:05;6.20;;;2.88;;
60169;SDS011;46042;49.444;6.862;2023-07-22T08:38:32;6.75;;;2.70;;
60169;SDS011;46042;49.444;6.862;2023-07-22T08:40:59;8.13;;;2.90;;
60169;SDS011;46042;49.444;6.862;2023-07-22T08:43:26;4.85;;;2.67;;
60169;SDS011;46042;49.444;6.862;2023-07-22T08:45:55;4.60;;;3.25;;
60169;SDS011;46042;49.444;6.862;2023-07-22T08:48:26;4.90;;;3.17;;
60169;SDS011;46042;49.444;6.862;2023-07-22T08:50:57;5.70;;;3.47;;
60169;SDS011;46042;49.444;6.862;2023-07-22T08:53:34;8.18;;;2.85;;
60169;SDS011;46042;49.444;6.862;2023-07-22T08:56:01;5.70;;;3.42;;
60169;SDS011;46042;49.444;6.862;2023-07-22T08:58:28;6.50;;;3.13;;
60169;SDS011;46042;49.444;6.862;2023-07-22T09:00:56;4.88;;;2.85;;
60169;SDS011;46042;49.444;6.862;2023-07-22T09:03:24;3.92;;;2.90;;
60169;SDS011;46042;49.444;6.862;2023-07-22T09:05:52;6.20;;;3.13;;
60169;SDS011;46042;49.444;6.862;2023-07-22T09:08:20;5.72;;;3.25;;
60169;SDS011;46042;49.444;6.862;2023-07-22T09:10:48;4.15;;;2.45;;
60169;SDS011;46042;49.444;6.862;2023-07-22T09:13:14;3.45;;;2.63;;
60169;SDS011;46042;49.444;6.862;2023-07-22T09:15:42;6.90;;;2.78;;
60169;SDS011;46042;49.444;6.862;2023-07-22T09:18:09;7.07;;;2.85;;
60169;SDS011;46042;49.444;6.862;2023-07-22T09:20:35;4.00;;;2.70;;
60169;SDS011;46042;49.444;6.862;2023-07-22T09:23:02;3.45;;;2.60;;
60169;SDS011;46042;49.444;6.862;2023-07-22T09:25:39;4.65;;;2.60;;
60169;SDS011;46042;49.444;6.862;2023-07-22T09:28:06;9.60;;;3.63;;
60169;SDS011;46042;49.444;6.862;2023-07-22T09:30:37;5.03;;;2.75;;
60169;SDS011;46042;49.444;6.862;2023-07-22T09:33:06;5.07;;;2.97;;
60169;SDS011;46042;49.444;6.862;2023-07-22T09:35:47;10.32;;;2.97;;
60169;SDS011;46042;49.444;6.862;2023-07-22T09:38:14;3.85;;;2.58;;
60169;SDS011;46042;49.444;6.862;2023-07-22T09:40:48;5.57;;;2.90;;
60169;SDS011;46042;49.444;6.862;2023-07-22T09:43:15;4.45;;;2.80;;
60169;SDS011;46042;49.444;6.862;2023-07-22T09:45:45;8.68;;;3.17;;
60169;SDS011;46042;49.444;6.862;2023-07-22T09:48:14;4.53;;;3.15;;
60169;SDS011;46042;49.444;6.862;2023-07-22T09:50:41;4.78;;;3.22;;
60169;SDS011;46042;49.444;6.862;2023-07-22T09:53:07;4.47;;;2.80;;
60169;SDS011;46042;49.444;6.862;2023-07-22T09:55:34;10.23;;;3.20;;
60169;SDS011;46042;49.444;6.862;2023-07-22T09:58:01;10.48;;;3.20;;
60169;SDS011;46042;49.444;6.862;2023-07-22T10:00:30;4.20;;;2.88;;
60169;SDS011;46042;49.444;6.862;2023-07-22T10:02:59;4.32;;;2.75;;
60169;SDS011;46042;49.444;6.862;2023-07-22T10:05:27;7.75;;;3.20;;
60169;SDS011;46042;49.444;6.862;2023-07-22T10:07:56;10.07;;;3.20;;
60169;SDS011;46042;49.444;6.862;2023-07-22T10:10:30;6.97;;;2.63;;
60169;SDS011;46042;49.444;6.862;2023-07-22T10:13:02;5.97;;;2.92;;
60169;SDS011;46042;49.444;6.862;2023-07-22T10:15:29;4.15;;;2.67;;
60169;SDS011;46042;49.444;6.862;2023-07-22T10:18:00;13.88;;;2.80;;
60169;SDS011;46042;49.444;6.862;2023-07-22T10:20:33;5.40;;;2.92;;
60169;SDS011;46042;49.444;6.862;2023-07-22T10:23:03;4.45;;;2.67;;
60169;SDS011;46042;49.444;6.862;2023-07-22T10:25:30;5.35;;;2.83;;
60169;SDS011;46042;49.444;6.862;2023-07-22T10:27:57;3.88;;;2.85;;
60169;SDS011;46042;49.444;6.862;2023-07-22T10:30:24;8.25;;;2.72;;
60169;SDS011;46042;49.444;6.862;2023-07-22T10:32:51;7.40;;;2.92;;
60169;SDS011;46042;49.444;6.862;2023-07-22T10:38:08;3.55;;;2.42;;
60169;SDS011;46042;49.444;6.862;2023-07-22T10:40:54;7.20;;;2.55;;
60169;SDS011;46042;49.444;6.862;2023-07-22T10:43:26;8.80;;;3.08;;
60169;SDS011;46042;49.444;6.862;2023-07-22T10:45:56;8.20;;;3.22;;
60169;SDS011;46042;49.444;6.862;2023-07-22T10:48:26;5.68;;;2.67;;
60169;SDS011;46042;49.444;6.862;2023-07-22T10:50:57;7.10;;;2.90;;
60169;SDS011;46042;49.444;6.862;2023-07-22T10:53:31;5.45;;;2.50;;
60169;SDS011;46042;49.444;6.862;2023-07-22T11:12:04;6.72;;;2.75;;
60169;SDS011;46042;49.444;6.862;2023-07-22T11:14:44;6.30;;;3.00;;
60169;SDS011;46042;49.444;6.862;2023-07-22T11:17:27;5.15;;;3.40;;
60169;SDS011;46042;49.444;6.862;2023-07-22T11:19:57;6.65;;;2.95;;
60169;SDS011;46042;49.444;6.862;2023-07-22T11:22:24;6.93;;;3.03;;
60169;SDS011;46042;49.444;6.862;2023-07-22T11:24:52;7.03;;;2.88;;
60169;SDS011;46042;49.444;6.862;2023-07-22T11:27:19;4.45;;;2.70;;
60169;SDS011;46042;49.444;6.862;2023-07-22T11:29:47;6.35;;;2.65;;
60169;SDS011;46042;49.444;6.862;2023-07-22T11:32:15;3.78;;;2.90;;
60169;SDS011;46042;49.444;6.862;2023-07-22T11:34:43;6.07;;;2.97;;
60169;SDS011;46042;49.444;6.862;2023-07-22T11:37:11;3.72;;;2.90;;
60169;SDS011;46042;49.444;6.862;2023-07-22T11:39:38;6.07;;;3.40;;
60169;SDS011;46042;49.444;6.862;2023-07-22T11:42:05;6.97;;;2.70;;
60169;SDS011;46042;49.444;6.862;2023-07-22T11:44:32;4.32;;;2.80;;
60169;SDS011;46042;49.444;6.862;2023-07-22T11:47:03;5.55;;;2.80;;
60169;SDS011;46042;49.444;6.862;2023-07-22T11:49:35;7.28;;;2.92;;
60169;SDS011;46042;49.444;6.862;2023-07-22T11:52:04;5.47;;;2.78;;
60169;SDS011;46042;49.444;6.862;2023-07-22T11:54:36;9.40;;;3.40;;
60169;SDS011;46042;49.444;6.862;2023-07-22T11:59:51;6.50;;;3.03;;
60169;SDS011;46042;49.444;6.862;2023-07-22T12:02:22;4.78;;;3.10;;
60169;SDS011;46042;49.444;6.862;2023-07-22T12:04:55;3.83;;;2.80;;
60169;SDS011;46042;49.444;6.862;2023-07-22T12:10:01;4.97;;;3.05;;
60169;SDS011;46042;49.444;6.862;2023-07-22T12:17:55;5.22;;;3.10;;
60169;SDS011;46042;49.444;6.862;2023-07-22T12:20:28;6.03;;;3.30;;
60169;SDS011;46042;49.444;6.862;2023-07-22T12:22:57;5.38;;;3.20;;
60169;SDS011;46042;49.444;6.862;2023-07-22T12:25:25;4.47;;;2.92;;
60169;SDS011;46042;49.444;6.862;2023-07-22T12:27:52;8.38;;;3.13;;
60169;SDS011;46042;49.444;6.862;2023-07-22T12:30:23;7.57;;;3.03;;
60169;SDS011;46042;49.444;6.862;2023-07-22T12:32:50;4.15;;;2.95;;
60169;SDS011;46042;49.444;6.862;2023-07-22T12:35:17;4.95;;;3.25;;
60169;SDS011;46042;49.444;6.862;2023-07-22T12:37:43;5.10;;;3.00;;
60169;SDS011;46042;49.444;6.862;2023-07-22T12:40:10;5.43;;;3.03;;
60169;SDS011;46042;49.444;6.862;2023-07-22T12:42:39;6.05;;;3.15;;
60169;SDS011;46042;49.444;6.862;2023-07-22T12:45:07;6.32;;;3.20;;
60169;SDS011;46042;49.444;6.862;2023-07-22T12:47:34;6.32;;;3.40;;
60169;SDS011;46042;49.444;6.862;2023-07-22T12:50:01;4.53;;;3.25;;
60169;SDS011;46042;49.444;6.862;2023-07-22T12:52:28;3.92;;;2.88;;
60169;SDS011;46042;49.444;6.862;2023-07-22T12:54:55;4.80;;;3.20;;
60169;SDS011;46042;49.444;6.862;2023-07-22T12:57:22;3.92;;;2.78;;
60169;SDS011;46042;49.444;6.862;2023-07-22T12:59:48;3.90;;;2.90;;
60169;SDS011;46042;49.444;6.862;2023-07-22T13:02:16;8.63;;;3.20;;
60169;SDS011;46042;49.444;6.862;2023-07-22T13:04:43;4.10;;;3.30;;
60169;SDS011;46042;49.444;6.862;2023-07-22T13:07:10;4.15;;;3.08;;
60169;SDS011;46042;49.444;6.862;2023-07-22T13:09:37;8.10;;;2.90;;
60169;SDS011;46042;49.444;6.862;2023-07-22T13:12:04;5.32;;;3.50;;
60169;SDS011;46042;49.444;6.862;2023-07-22T13:14:31;7.60;;;3.13;;
60169;SDS011;46042;49.444;6.862;2023-07-22T13:16:58;3.70;;;2.90;;
60169;SDS011;46042;49.444;6.862;2023-07-22T13:19:25;7.30;;;3.58;;
60169;SDS011;46042;49.444;6.862;2023-07-22T13:21:51;5.32;;;3.28;;
60169;SDS011;46042;49.444;6.862;2023-07-22T13:24:18;3.83;;;2.90;;
60169;SDS011;46042;49.444;6.862;2023-07-22T13:26:45;3.95;;;3.05;;
60169;SDS011;46042;49.444;6.862;2023-07-22T13:29:11;4.95;;;2.70;;
60169;SDS011;46042;49.444;6.862;2023-07-22T13:31:38;5.10;;;3.25;;
60169;SDS011;46042;49.444;6.862;2023-07-22T13:34:05;5.45;;;3.45;;
60169;SDS011;46042;49.444;6.862;2023-07-22T13:36:32;4.28;;;3.22;;
60169;SDS011;46042;49.444;6.862;2023-07-22T13:38:58;5.10;;;2.90;;
60169;SDS011;46042;49.444;6.862;2023-07-22T13:41:25;5.35;;;3.22;;
60169;SDS011;46042;49.444;6.862;2023-07-22T13:43:52;7.70;;;3.22;;
60169;SDS011;46042;49.444;6.862;2023-07-22T13:46:19;4.35;;;3.40;;
60169;SDS011;46042;49.444;6.862;2023-07-22T13:48:46;6.43;;;3.20;;
60169;SDS011;46042;49.444;6.862;2023-07-22T13:51:13;4.97;;;3.10;;
60169;SDS011;46042;49.444;6.862;2023-07-22T13:53:40;3.92;;;2.80;;
60169;SDS011;46042;49.444;6.862;2023-07-22T13:56:06;5.28;;;3.42;;
60169;SDS011;46042;49.444;6.862;2023-07-22T13:58:34;6.60;;;3.60;;
60169;SDS011;46042;49.444;6.862;2023-07-22T14:01:00;5.35;;;3.13;;
60169;SDS011;46042;49.444;6.862;2023-07-22T14:03:28;4.72;;;3.20;;
60169;SDS011;46042;49.444;6.862;2023-07-22T14:05:54;7.25;;;3.22;;
60169;SDS011;46042;49.444;6.862;2023-07-22T14:08:21;7.35;;;3.28;;
60169;SDS011;46042;49.444;6.862;2023-07-22T14:10:48;4.47;;;2.83;;
60169;SDS011;46042;49.444;6.862;2023-07-22T14:13:15;6.30;;;2.92;;
60169;SDS011;46042;49.444;6.862;2023-07-22T14:15:41;11.50;;;3.17;;
60169;SDS011;46042;49.444;6.862;2023-07-22T14:18:08;4.05;;;2.85;;
60169;SDS011;46042;49.444;6.862;2023-07-22T14:20:35;5.05;;;3.10;;
60169;SDS011;46042;49.444;6.862;2023-07-22T14:23:01;4.88;;;2.97;;
60169;SDS011;46042;49.444;6.862;2023-07-22T14:25:30;6.00;;;3.10;;
60169;SDS011;46042;49.444;6.862;2023-07-22T14:27:57;7.82;;;3.55;;
60169;SDS011;46042;49.444;6.862;2023-07-22T14:30:23;4.82;;;3.05;;
60169;SDS011;46042;49.444;6.862;2023-07-22T14:32:50;4.75;;;2.78;;
60169;SDS011;46042;49.444;6.862;2023-07-22T14:35:17;3.42;;;3.13;;
60169;SDS011;46042;49.444;6.862;2023-07-22T14:37:44;4.93;;;3.65;;
60169;SDS011;46042;49.444;6.862;2023-07-22T14:40:12;4.53;;;3.08;;
60169;SDS011;46042;49.444;6.862;2023-07-22T14:42:39;4.15;;;2.85;;
60169;SDS011;46042;49.444;6.862;2023-07-22T14:45:06;5.45;;;2.75;;
60169;SDS011;46042;49.444;6.862;2023-07-22T14:47:33;19.65;;;4.15;;
60169;SDS011;46042;49.444;6.862;2023-07-22T14:50:01;4.97;;;3.33;;
60169;SDS011;46042;49.444;6.862;2023-07-22T14:52:28;6.32;;;3.50;;
60169;SDS011;46042;49.444;6.862;2023-07-22T14:54:55;4.50;;;3.00;;
60169;SDS011;46042;49.444;6.862;2023-07-22T14:57:21;3.90;;;3.47;;
60169;SDS011;46042;49.444;6.862;2023-07-22T14:59:48;8.02;;;3.15;;
60169;SDS011;46042;49.444;6.862;2023-07-22T15:02:15;3.95;;;2.80;;
60169;SDS011;46042;49.444;6.862;2023-07-22T15:04:41;4.97;;;2.92;;
60169;SDS011;46042;49.444;6.862;2023-07-22T15:07:08;8.90;;;4.60;;
60169;SDS011;46042;49.444;6.862;2023-07-22T15:09:35;4.55;;;3.40;;
60169;SDS011;46042;49.444;6.862;2023-07-22T15:12:01;3.88;;;3.20;;
60169;SDS011;46042;49.444;6.862;2023-07-22T15:14:28;6.95;;;3.38;;
60169;SDS011;46042;49.444;6.862;2023-07-22T15:16:55;7.05;;;3.17;;
60169;SDS011;46042;49.444;6.862;2023-07-22T15:19:22;4.63;;;3.10;;
60169;SDS011;46042;49.444;6.862;2023-07-22T15:21:49;4.18;;;2.70;;
60169;SDS011;46042;49.444;6.862;2023-07-22T15:24:15;6.28;;;3.10;;